createdAt,value
2019-03-02T08:04:20.344Z,29.18
2019-03-02T08:09:25.905Z,29.55
2019-03-02T08:14:31.547Z,28.23
2019-03-02T08:19:39.252Z,29.52
2019-03-02T08:24:48.155Z,29.80
2019-03-02T08:29:58.120Z,27.97
2019-03-02T08:35:04.966Z,28.10
2019-03-02T08:40:23.464Z,29.57
2019-03-02T08:45:27.673Z,29.20
2019-03-02T08:50:33.390Z,30.52
2019-03-02T08:55:39.169Z,29.30
2019-03-02T09:00:43.564Z,30.00
2019-03-02T09:05:51.645Z,29.23
2019-03-02T09:10:56.763Z,29.07
2019-03-02T09:16:05.378Z,29.48
2019-03-02T09:21:12.418Z,30.80
2019-03-02T09:38:27.962Z,29.93
2019-03-02T09:44:00.968Z,27.95
2019-03-02T09:49:18.598Z,30.10
2019-03-02T09:54:19.735Z,31.10
2019-03-02T09:59:24.616Z,31.27
2019-03-02T10:04:29.160Z,31.15
2019-03-02T10:09:37.760Z,31.10
2019-03-02T10:14:45.988Z,32.23
2019-03-02T10:20:21.669Z,32.48
2019-03-02T10:25:48.429Z,34.10
2019-03-02T10:31:21.331Z,32.80
2019-03-02T10:36:54.574Z,34.10
2019-03-02T10:42:12.913Z,33.70
2019-03-02T10:47:22.153Z,34.13
2019-03-02T10:52:31.678Z,33.50
2019-03-02T10:57:55.235Z,35.53
2019-03-02T11:03:16.538Z,35.03
2019-03-02T11:08:43.180Z,33.45
2019-03-02T11:37:11.054Z,36.23
2019-03-02T11:43:05.098Z,35.90
2019-03-02T11:49:04.314Z,33.38
2019-03-02T11:54:16.364Z,35.33
2019-03-02T12:00:00.810Z,34.10
2019-03-02T12:05:36.338Z,35.08
2019-03-02T12:10:48.123Z,35.40
2019-03-02T12:16:29.489Z,35.30
2019-03-02T13:12:22.757Z,29.60
2019-03-02T13:34:27.474Z,25.17
2019-03-02T22:40:05.692Z,6.55
